BRQ weather

Brno-Tuřany Airport
Brno, South Moravian Region, Czech Republic

Public forecast

Using degrees Celsius for public forecast. Weather courtesy of forecast.io.

Current aviation weather report (METAR) for Brno-Tuřany Airport

Retrieved 2020/05/27 23:00 UTC (31 minutes ago):

LKTB 272300Z 33003KT CAVOK 13/06 Q1027 NOSIG

Aviation forecast (TAF) for Brno-Tuřany Airport

Retrieved 2020/05/27 18:10 UTC (5 hours ago):

TAF LKTB 271700Z 2718/2900 35008KT CAVOK TEMPO 2718/2719 01016KT TEMPO 2723/2806 VRB02KT BECMG 2806/2808 9999 BKN033 PROB30 TEMPO 2811/2815 7000 SHRA SCT017CB OVC020 TEMPO 2810/2819 01012G24KT